createdAt,value
2019-03-13T00:02:00.924Z,66.60
2019-03-13T00:05:17.027Z,63.70
2019-03-13T00:07:55.460Z,64.20
2019-03-13T00:29:46.940Z,65.80
2019-03-13T00:32:20.490Z,66.00
2019-03-13T00:35:17.955Z,66.60
2019-03-13T00:41:26.125Z,63.70
2019-03-13T00:43:04.694Z,64.20
2019-03-13T00:45:32.507Z,63.40
2019-03-13T00:48:03.272Z,63.50
2019-03-13T00:56:18.634Z,60.30
2019-03-13T00:59:29.428Z,64.60
2019-03-13T01:02:20.168Z,63.80
2019-03-13T01:05:23.434Z,62.90
2019-03-13T01:08:02.431Z,63.20
2019-03-13T01:11:01.057Z,62.50
2019-03-13T01:13:37.563Z,62.20
2019-03-13T01:16:09.338Z,63.20
2019-03-13T01:31:33.732Z,64.20
2019-03-13T01:36:45.000Z,66.20
2019-03-13T01:39:15.589Z,66.70
2019-03-13T01:41:45.505Z,65.30
2019-03-13T01:44:14.726Z,62.50
2019-03-13T01:46:46.039Z,64.10
2019-03-13T01:56:44.099Z,62.90
2019-03-13T01:59:13.695Z,63.60
2019-03-13T02:01:43.339Z,65.90
2019-03-13T02:04:15.177Z,62.80
2019-03-13T02:06:45.832Z,62.00
2019-03-13T02:09:15.359Z,62.40
2019-03-13T02:14:18.407Z,61.40
2019-03-13T02:19:19.199Z,62.80
2019-03-13T02:21:48.418Z,62.90
2019-03-13T02:24:20.085Z,63.20
2019-03-13T02:29:20.116Z,68.10
2019-03-13T02:31:49.002Z,68.40
2019-03-13T02:34:18.223Z,65.20
2019-03-13T02:36:47.337Z,65.40
2019-03-13T02:39:26.614Z,65.90
2019-03-13T02:41:56.942Z,62.80
2019-03-13T02:47:00.772Z,62.30
2019-03-13T02:51:59.729Z,64.00
2019-03-13T02:54:30.738Z,62.80
2019-03-13T02:57:03.420Z,63.40
2019-03-13T02:59:36.137Z,62.10
2019-03-13T03:02:08.248Z,60.90
2019-03-13T03:04:42.162Z,61.60
2019-03-13T03:17:37.500Z,63.70
2019-03-13T03:20:10.295Z,61.20
2019-03-13T03:27:50.791Z,60.00
2019-03-13T03:30:31.542Z,60.80
2019-03-13T03:33:00.946Z,60.00
2019-03-13T03:35:30.746Z,59.80
2019-03-13T03:38:03.500Z,58.70
2019-03-13T03:40:39.372Z,59.00
2019-03-13T03:43:12.482Z,56.90
2019-03-13T03:45:45.734Z,59.00
2019-03-13T03:48:19.363Z,59.60
2019-03-13T03:50:55.913Z,59.60
2019-03-13T03:53:27.997Z,60.20
2019-03-13T03:56:00.196Z,61.30
2019-03-13T04:01:01.985Z,61.20
2019-03-13T04:03:33.685Z,61.80
2019-03-13T04:06:06.732Z,62.40
2019-03-13T04:08:44.934Z,61.80
2019-03-13T04:11:13.350Z,61.20
2019-03-13T04:13:48.546Z,61.90
2019-03-13T04:16:18.922Z,62.60
2019-03-13T04:18:50.779Z,61.70
2019-03-13T04:21:20.553Z,61.70
2019-03-13T04:23:53.384Z,60.60
2019-03-13T04:26:28.542Z,59.50
2019-03-13T04:28:59.072Z,59.80
2019-03-13T04:34:01.118Z,59.30
2019-03-13T04:36:30.432Z,59.40
2019-03-13T04:39:00.244Z,59.40
2019-03-13T04:41:32.757Z,59.20
2019-03-13T04:46:38.942Z,59.80
2019-03-13T04:49:15.293Z,60.20
2019-03-13T04:56:48.936Z,60.00
2019-03-13T04:59:19.504Z,60.80
2019-03-13T05:01:53.680Z,61.50
2019-03-13T05:09:19.855Z,61.00
2019-03-13T05:11:48.829Z,60.40
2019-03-13T05:14:17.626Z,61.10
2019-03-13T05:16:46.519Z,61.00
2019-03-13T05:21:45.208Z,60.10
2019-03-13T05:24:14.247Z,61.20
2019-03-13T05:26:43.075Z,59.80
2019-03-13T05:29:12.188Z,60.20
2019-03-13T05:31:42.518Z,60.00
2019-03-13T05:34:17.046Z,59.60
2019-03-13T05:36:43.502Z,59.40
2019-03-13T05:39:12.463Z,59.50
2019-03-13T05:41:44.936Z,58.90
2019-03-13T05:46:45.249Z,58.20
2019-03-13T05:49:14.339Z,59.20
2019-03-13T05:56:44.196Z,58.20
2019-03-13T05:59:10.664Z,58.50
2019-03-13T06:01:39.560Z,58.20
2019-03-13T06:04:08.521Z,58.10
2019-03-13T06:09:07.554Z,56.90
2019-03-13T06:11:36.587Z,57.80
2019-03-13T06:16:34.539Z,57.40
2019-03-13T06:19:03.428Z,57.70
2019-03-13T06:24:00.841Z,56.30
2019-03-13T06:26:29.881Z,56.90
2019-03-13T06:28:58.983Z,57.10
2019-03-13T06:31:29.327Z,57.20
2019-03-13T06:33:58.750Z,57.30
2019-03-13T06:36:29.258Z,57.10
2019-03-13T06:39:01.095Z,56.70
2019-03-13T06:41:30.444Z,57.40
2019-03-13T06:43:59.484Z,57.30
2019-03-13T06:46:28.600Z,57.20
2019-03-13T06:48:59.120Z,57.00
2019-03-13T06:51:28.093Z,56.60
2019-03-13T06:53:59.217Z,56.20
2019-03-13T06:56:28.621Z,57.40
2019-03-13T07:01:41.687Z,57.10
2019-03-13T07:04:25.960Z,57.50
2019-03-13T07:09:46.402Z,55.90
2019-03-13T07:12:23.431Z,56.40
2019-03-13T07:15:12.849Z,56.80
2019-03-13T07:17:47.658Z,55.40
2019-03-13T07:20:18.337Z,55.80
2019-03-13T07:22:51.805Z,56.40
2019-03-13T07:25:22.372Z,56.50
2019-03-13T07:27:56.238Z,56.70
2019-03-13T07:30:41.699Z,56.40
2019-03-13T07:33:21.912Z,56.20
2019-03-13T07:35:55.503Z,56.60
2019-03-13T07:38:35.194Z,55.50
2019-03-13T07:41:19.758Z,55.40
2019-03-13T07:43:53.893Z,57.20
2019-03-13T07:46:24.695Z,57.80
2019-03-13T07:49:12.923Z,57.60
2019-03-13T07:51:44.084Z,57.60
2019-03-13T07:54:32.958Z,57.60
2019-03-13T07:57:03.698Z,56.80
2019-03-13T07:59:45.167Z,56.40
2019-03-13T08:02:21.987Z,57.90
2019-03-13T08:05:10.195Z,56.60
2019-03-13T08:07:45.702Z,56.20
2019-03-13T08:10:26.197Z,58.60
2019-03-13T08:12:58.124Z,57.20
2019-03-13T08:15:42.272Z,56.80
2019-03-13T08:18:31.137Z,56.70
2019-03-13T08:21:02.978Z,58.40
2019-03-13T08:23:37.158Z,59.60
2019-03-13T08:26:10.220Z,60.10
2019-03-13T08:28:58.123Z,59.60
2019-03-13T08:31:43.296Z,57.80
2019-03-13T08:34:21.173Z,58.10
2019-03-13T08:37:09.334Z,57.70
2019-03-13T08:39:42.033Z,57.80
2019-03-13T08:42:26.011Z,58.90
2019-03-13T08:44:59.170Z,58.00
2019-03-13T08:47:36.328Z,57.50
2019-03-13T08:50:12.575Z,58.50
2019-03-13T08:52:52.267Z,58.10
2019-03-13T08:55:30.481Z,57.60
2019-03-13T08:58:02.829Z,57.80
2019-03-13T09:00:45.216Z,57.60
2019-03-13T09:03:22.527Z,58.00
2019-03-13T09:05:59.514Z,58.00
2019-03-13T09:08:48.479Z,60.30
2019-03-13T09:11:25.762Z,59.50
2019-03-13T09:14:14.981Z,59.80
2019-03-13T09:17:03.059Z,59.80
2019-03-13T09:19:45.505Z,59.30
2019-03-13T09:22:17.671Z,60.20
2019-03-13T09:24:52.292Z,60.50
2019-03-13T09:27:42.312Z,61.70
2019-03-13T09:30:20.458Z,61.10
2019-03-13T09:32:53.257Z,62.60
2019-03-13T09:35:25.653Z,60.80
2019-03-13T09:38:01.485Z,61.20
2019-03-13T09:40:41.084Z,59.10
2019-03-13T09:43:27.517Z,59.40
2019-03-13T09:45:59.952Z,58.50
2019-03-13T09:48:49.717Z,59.60
2019-03-13T09:51:26.201Z,59.40
2019-03-13T09:54:02.829Z,58.10
2019-03-13T09:56:43.452Z,59.60
2019-03-13T09:59:14.206Z,60.20
2019-03-13T10:01:59.725Z,60.20
2019-03-13T10:04:32.306Z,59.80
2019-03-13T10:07:03.753Z,60.00
2019-03-13T10:09:47.569Z,59.60
2019-03-13T10:12:29.637Z,58.60
2019-03-13T10:15:11.387Z,58.90
2019-03-13T10:18:01.200Z,58.30
2019-03-13T10:22:15.481Z,57.90
2019-03-13T10:24:49.208Z,57.70
2019-03-13T10:27:22.349Z,57.00
2019-03-13T10:30:12.085Z,57.20
2019-03-13T10:33:03.733Z,57.60
2019-03-13T10:35:41.642Z,56.70
2019-03-13T10:38:18.103Z,57.60
2019-03-13T10:41:05.542Z,55.60
2019-03-13T10:43:40.242Z,56.00
2019-03-13T10:46:29.977Z,58.40
2019-03-13T10:49:18.850Z,57.40
2019-03-13T10:51:58.491Z,56.10
2019-03-13T10:54:34.271Z,56.20
2019-03-13T10:57:18.725Z,55.70
2019-03-13T11:00:17.083Z,55.70
2019-03-13T11:02:50.859Z,55.80
2019-03-13T11:05:28.034Z,54.70
2019-03-13T11:08:03.634Z,54.50
2019-03-13T11:10:51.420Z,54.80
2019-03-13T11:13:45.445Z,55.70
2019-03-13T11:16:23.415Z,57.00
2019-03-13T11:19:10.525Z,58.40
2019-03-13T11:21:58.702Z,58.40
2019-03-13T11:24:37.280Z,58.50
2019-03-13T11:27:10.115Z,59.90
2019-03-13T11:29:57.056Z,59.90
2019-03-13T11:32:38.551Z,59.20
2019-03-13T11:35:24.241Z,59.80
2019-03-13T11:38:01.171Z,59.80
2019-03-13T11:40:40.231Z,58.20
2019-03-13T11:43:15.496Z,59.20
2019-03-13T11:45:50.472Z,58.20
2019-03-13T11:48:32.107Z,59.00
2019-03-13T11:51:10.238Z,60.10
2019-03-13T11:53:48.086Z,58.90
2019-03-13T11:56:41.150Z,57.90
2019-03-13T11:59:14.338Z,56.90
2019-03-13T12:02:05.861Z,56.80
2019-03-13T12:04:41.582Z,57.60
2019-03-13T12:07:31.939Z,59.00
2019-03-13T12:10:19.522Z,59.00
2019-03-13T12:12:52.439Z,59.10
2019-03-13T12:15:35.535Z,56.90
2019-03-13T12:18:22.134Z,58.00
2019-03-13T12:20:55.060Z,56.90
2019-03-13T12:23:49.861Z,56.20
2019-03-13T12:26:21.592Z,56.20
2019-03-13T12:29:10.099Z,56.40
2019-03-13T12:32:02.302Z,57.60
2019-03-13T12:34:40.550Z,58.80
2019-03-13T12:37:11.408Z,57.30
2019-03-13T12:39:46.275Z,57.30
2019-03-13T12:42:26.844Z,56.40
2019-03-13T12:45:06.682Z,57.10
2019-03-13T12:47:44.087Z,57.00
2019-03-13T12:50:34.454Z,58.00
2019-03-13T12:53:29.395Z,58.80
2019-03-13T12:56:03.358Z,57.90
2019-03-13T12:58:36.918Z,59.70
2019-03-13T13:01:12.886Z,58.60
2019-03-13T13:03:44.313Z,58.10
2019-03-13T13:06:26.791Z,58.00
2019-03-13T13:09:05.119Z,58.20
2019-03-13T13:11:36.379Z,60.10
2019-03-13T13:14:11.078Z,59.50
2019-03-13T13:16:59.397Z,59.20
2019-03-13T13:19:32.854Z,58.20
2019-03-13T13:22:11.660Z,57.50
2019-03-13T13:24:43.478Z,58.30
2019-03-13T13:27:20.841Z,58.20
2019-03-13T13:29:53.805Z,58.10
2019-03-13T13:32:27.092Z,59.20
2019-03-13T13:34:57.901Z,62.00
2019-03-13T13:37:27.056Z,64.00
2019-03-13T13:39:59.253Z,62.30
2019-03-13T13:42:28.369Z,60.80
2019-03-13T13:45:03.091Z,60.00
2019-03-13T13:47:35.969Z,59.30
2019-03-13T13:50:13.179Z,59.40
2019-03-13T13:52:40.022Z,59.00
2019-03-13T13:55:09.248Z,59.80
2019-03-13T13:57:42.791Z,58.90
2019-03-13T14:00:16.594Z,58.00
2019-03-13T14:02:49.945Z,60.40
2019-03-13T14:05:21.139Z,59.30
2019-03-13T14:07:50.617Z,59.20
2019-03-13T14:10:22.527Z,58.80
2019-03-13T14:12:52.257Z,60.60
2019-03-13T14:15:21.680Z,61.00
2019-03-13T14:17:50.608Z,60.90
2019-03-13T14:20:19.758Z,63.60
2019-03-13T14:22:48.808Z,61.90
2019-03-13T14:25:18.272Z,62.70
2019-03-13T14:27:49.371Z,61.60
2019-03-13T14:30:21.969Z,61.40
2019-03-13T14:32:51.607Z,62.10
2019-03-13T14:35:27.225Z,59.20
2019-03-13T14:37:57.316Z,58.60
2019-03-13T14:40:31.503Z,59.00
2019-03-13T14:43:05.469Z,58.50
2019-03-13T14:45:44.893Z,59.00
2019-03-13T14:48:14.853Z,60.40
2019-03-13T14:50:54.812Z,62.80
2019-03-13T14:53:26.091Z,67.00
2019-03-13T14:55:59.515Z,68.70
2019-03-13T14:58:29.678Z,66.40
2019-03-13T15:01:03.338Z,65.30
2019-03-13T15:03:41.618Z,65.70
2019-03-13T15:06:13.538Z,65.70
2019-03-13T15:08:43.420Z,61.80
2019-03-13T15:11:13.146Z,60.90
2019-03-13T15:13:42.212Z,61.60
2019-03-13T15:16:11.199Z,61.40
2019-03-13T15:19:16.589Z,61.60
2019-03-13T15:21:45.781Z,60.10
2019-03-13T15:24:42.651Z,59.30
2019-03-13T15:27:16.374Z,58.90
2019-03-13T15:30:21.198Z,59.60
2019-03-13T15:32:54.219Z,59.50
2019-03-13T15:36:01.099Z,59.40
2019-03-13T15:38:36.714Z,59.60
2019-03-13T15:41:30.108Z,60.20
2019-03-13T15:43:58.964Z,60.00
2019-03-13T15:47:07.094Z,60.10
2019-03-13T15:49:37.897Z,60.80
2019-03-13T15:52:09.563Z,61.20
2019-03-13T15:54:40.360Z,64.10
2019-03-13T15:58:00.417Z,64.20
2019-03-13T16:00:30.586Z,65.70
2019-03-13T16:03:37.104Z,64.10
2019-03-13T16:06:06.741Z,64.60
2019-03-13T16:09:26.659Z,64.80
2019-03-13T16:11:58.531Z,65.50
2019-03-13T16:15:03.191Z,68.20
2019-03-13T16:17:34.770Z,76.60
2019-03-13T16:20:27.673Z,71.60
2019-03-13T16:22:58.203Z,77.80
2019-03-13T16:26:03.059Z,82.90
2019-03-13T16:28:32.017Z,85.00
2019-03-13T16:37:54.208Z,85.80
2019-03-13T16:40:23.804Z,99.90
2019-03-13T16:43:28.532Z,99.90
2019-03-13T16:45:57.889Z,99.90
2019-03-13T16:49:11.704Z,99.90
2019-03-13T16:51:41.977Z,99.90
2019-03-13T16:55:07.087Z,99.90
2019-03-13T16:57:36.054Z,99.90
2019-03-13T17:00:56.157Z,99.90
2019-03-13T17:03:25.709Z,99.90
2019-03-13T17:06:36.893Z,99.90
2019-03-13T17:09:09.677Z,99.90
2019-03-13T17:12:22.092Z,99.90
2019-03-13T17:14:51.431Z,99.90
2019-03-13T17:18:02.527Z,99.90
2019-03-13T17:20:36.660Z,99.90
2019-03-13T17:23:29.776Z,99.90
2019-03-13T17:25:58.827Z,99.90
2019-03-13T17:29:12.989Z,99.90
2019-03-13T17:31:42.326Z,99.90
2019-03-13T17:48:11.638Z,99.90
2019-03-13T17:50:42.766Z,99.90
2019-03-13T17:53:51.095Z,99.90
2019-03-13T17:56:21.445Z,99.90
2019-03-13T17:59:38.504Z,99.90
2019-03-13T18:02:10.758Z,99.90
2019-03-13T18:05:35.102Z,99.90
2019-03-13T18:08:04.415Z,99.90
2019-03-13T18:11:27.886Z,99.90
2019-03-13T18:13:57.752Z,99.90
2019-03-13T18:16:41.901Z,99.90
2019-03-13T18:19:11.050Z,99.90
2019-03-13T18:22:28.216Z,99.90
2019-03-13T18:24:57.193Z,99.90
2019-03-13T18:27:59.005Z,99.90
2019-03-13T18:30:30.236Z,99.90
2019-03-13T18:33:40.633Z,99.90
2019-03-13T18:36:09.519Z,99.90
2019-03-13T18:39:05.069Z,99.90
2019-03-13T18:41:34.280Z,99.90
2019-03-13T18:44:37.896Z,99.90
2019-03-13T18:47:13.253Z,99.90
2019-03-13T18:50:03.075Z,99.90
2019-03-13T18:52:32.118Z,99.90
2019-03-13T18:55:40.021Z,99.90
2019-03-13T18:58:13.970Z,99.90
2019-03-13T19:01:03.226Z,99.90
2019-03-13T19:03:32.387Z,99.90
2019-03-13T19:06:40.452Z,99.90
2019-03-13T19:09:10.006Z,99.90
2019-03-13T19:12:03.151Z,99.90
2019-03-13T19:14:32.526Z,99.90
2019-03-13T19:17:40.240Z,99.90
2019-03-13T19:20:12.214Z,99.90
2019-03-13T19:23:29.704Z,99.90
2019-03-13T19:25:59.832Z,99.90
2019-03-13T19:29:05.273Z,99.90
2019-03-13T19:31:34.149Z,99.90
2019-03-13T19:34:19.176Z,99.90
2019-03-13T19:36:53.055Z,99.90
2019-03-13T19:40:00.022Z,99.90
2019-03-13T19:42:31.019Z,99.90
2019-03-13T19:45:01.482Z,99.90
2019-03-13T19:47:52.573Z,99.90
2019-03-13T19:50:23.486Z,99.90
2019-03-13T20:00:12.528Z,99.90
2019-03-13T20:02:59.046Z,99.90
2019-03-13T20:08:28.079Z,99.90
2019-03-13T20:10:58.255Z,99.90
2019-03-13T20:16:17.171Z,99.90
2019-03-13T20:21:38.271Z,99.90
2019-03-13T20:25:11.201Z,99.90
2019-03-13T20:27:40.616Z,99.90
2019-03-13T20:30:13.450Z,99.90
2019-03-13T20:32:50.248Z,99.90
2019-03-13T20:35:20.880Z,99.40
2019-03-13T20:38:15.438Z,99.90
2019-03-13T20:40:45.152Z,99.90
2019-03-13T20:43:22.378Z,99.90
2019-03-13T20:45:48.941Z,99.90
2019-03-13T20:48:32.621Z,99.90
2019-03-13T20:51:05.426Z,99.60
2019-03-13T20:53:41.921Z,99.90
2019-03-13T20:56:13.758Z,99.90
2019-03-13T20:59:49.741Z,99.90
2019-03-13T21:01:18.219Z,99.90
2019-03-13T21:03:51.446Z,99.90
2019-03-13T21:06:22.351Z,99.90
2019-03-13T21:09:19.622Z,99.90
2019-03-13T21:11:47.829Z,99.70
2019-03-13T21:14:21.681Z,99.90
2019-03-13T21:16:51.060Z,99.90
2019-03-13T21:19:20.233Z,98.40
2019-03-13T21:22:25.208Z,94.30
2019-03-13T21:24:58.102Z,99.90
2019-03-13T21:30:22.692Z,99.90
2019-03-13T21:32:51.869Z,99.90
2019-03-13T21:36:05.191Z,99.90
2019-03-13T21:38:35.742Z,99.90
2019-03-13T21:41:05.258Z,99.90
2019-03-13T21:43:36.974Z,99.30
2019-03-13T21:46:09.292Z,99.90
2019-03-13T21:49:12.824Z,99.90
2019-03-13T21:51:48.158Z,95.00
2019-03-13T21:54:21.398Z,94.70
2019-03-13T21:57:14.140Z,94.20
2019-03-13T21:59:44.519Z,98.30
2019-03-13T22:02:16.402Z,99.90
2019-03-13T22:04:51.764Z,99.40
2019-03-13T22:07:22.939Z,99.90
2019-03-13T22:10:28.082Z,99.70
2019-03-13T22:13:05.796Z,95.20
2019-03-13T22:15:34.821Z,94.90
2019-03-13T22:18:51.432Z,96.80
2019-03-13T22:21:24.692Z,90.30
2019-03-13T22:23:53.681Z,85.60
2019-03-13T22:26:30.314Z,93.10
2019-03-13T22:29:03.086Z,99.90
2019-03-13T22:32:08.841Z,98.40
2019-03-13T22:34:37.816Z,93.70
2019-03-13T22:37:08.613Z,91.80
2019-03-13T22:40:13.133Z,95.80
2019-03-13T22:42:42.063Z,97.00
2019-03-13T22:45:35.028Z,95.10
2019-03-13T22:48:04.085Z,96.40
2019-03-13T22:50:33.234Z,91.60
2019-03-13T22:53:02.093Z,97.90
2019-03-13T22:55:31.014Z,97.90
2019-03-13T22:58:01.530Z,98.60
2019-03-13T23:00:57.509Z,99.90
2019-03-13T23:03:28.387Z,99.90
2019-03-13T23:06:30.865Z,94.70
2019-03-13T23:09:00.238Z,99.30
2019-03-13T23:11:29.099Z,99.90
2019-03-13T23:14:49.051Z,96.60
2019-03-13T23:17:17.904Z,96.10
2019-03-13T23:19:46.708Z,99.90
2019-03-13T23:22:19.300Z,94.20
2019-03-13T23:24:49.253Z,98.40
2019-03-13T23:27:21.234Z,92.10
2019-03-13T23:29:59.356Z,95.00
2019-03-13T23:32:28.582Z,98.20
2019-03-13T23:35:39.108Z,97.30
2019-03-13T23:38:10.081Z,95.10
2019-03-13T23:40:39.175Z,95.50
2019-03-13T23:43:11.506Z,98.90
2019-03-13T23:45:47.080Z,96.60
2019-03-13T23:48:17.264Z,97.60
2019-03-13T23:50:47.960Z,92.70
2019-03-13T23:53:18.222Z,94.00
2019-03-13T23:55:48.588Z,94.90
2019-03-13T23:58:21.264Z,94.80
